createdAt,value
2023-01-29T00:02:40.835Z,72.46
2023-01-29T00:05:28.222Z,72.62
2023-01-29T00:08:19.352Z,72.63
2023-01-29T00:11:04.935Z,72.79
2023-01-29T00:13:35.969Z,72.33
2023-01-29T00:16:26.879Z,71.82
2023-01-29T00:18:57.437Z,71.66
2023-01-29T00:21:48.407Z,71.68
2023-01-29T00:24:39.016Z,71.64
2023-01-29T00:27:30.514Z,71.94
2023-01-29T00:30:19.824Z,72.18
2023-01-29T00:33:04.183Z,71.99
2023-01-29T00:35:47.640Z,72.40
2023-01-29T00:38:27.447Z,72.45
2023-01-29T00:41:30.577Z,72.60
2023-01-29T00:44:38.706Z,72.73
2023-01-29T00:47:33.553Z,72.64
2023-01-29T00:50:24.510Z,72.55
2023-01-29T00:53:15.169Z,72.73
2023-01-29T00:56:06.431Z,72.83
2023-01-29T00:58:57.662Z,72.88
2023-01-29T01:02:06.011Z,72.11
2023-01-29T01:04:56.974Z,72.40
2023-01-29T01:07:49.446Z,72.30
2023-01-29T01:10:40.124Z,72.45
2023-01-29T01:13:30.842Z,71.86
2023-01-29T01:16:18.696Z,71.36
2023-01-29T01:18:56.772Z,71.71
2023-01-29T01:21:48.529Z,71.88
2023-01-29T01:24:39.593Z,72.34
2023-01-29T01:27:30.350Z,72.04
2023-01-29T01:30:21.291Z,71.56
2023-01-29T01:33:11.907Z,72.12
2023-01-29T01:35:45.317Z,72.48
2023-01-29T01:38:25.695Z,71.88
2023-01-29T01:41:09.076Z,71.71
2023-01-29T01:43:54.069Z,71.35
2023-01-29T01:46:44.715Z,71.34
2023-01-29T01:49:35.718Z,71.48
2023-01-29T01:52:26.700Z,71.81
2023-01-29T01:55:21.575Z,71.91
2023-01-29T01:58:10.487Z,72.31
2023-01-29T02:01:02.073Z,72.72
2023-01-29T02:04:16.462Z,72.49
2023-01-29T02:07:18.606Z,72.45
2023-01-29T02:10:17.215Z,72.85
2023-01-29T02:13:09.662Z,72.73
2023-01-29T02:16:00.528Z,72.83
2023-01-29T02:18:52.130Z,72.60
2023-01-29T02:21:53.711Z,72.70
2023-01-29T02:25:10.069Z,72.34
2023-01-29T02:28:13.081Z,72.16
2023-01-29T02:31:04.773Z,71.73
2023-01-29T02:34:03.799Z,72.15
2023-01-29T02:36:59.113Z,72.11
2023-01-29T02:39:49.950Z,72.13
2023-01-29T02:42:37.161Z,72.22
2023-01-29T02:45:34.574Z,71.73
2023-01-29T02:48:28.893Z,71.99
2023-01-29T02:51:07.692Z,72.27
2023-01-29T02:53:59.183Z,72.43
2023-01-29T02:56:55.414Z,72.28
2023-01-29T02:59:44.557Z,72.59
2023-01-29T03:02:19.970Z,72.77
2023-01-29T03:05:17.970Z,73.16
2023-01-29T03:08:08.396Z,73.28
2023-01-29T03:10:55.559Z,73.72
2023-01-29T03:13:51.435Z,73.94
2023-01-29T03:16:47.890Z,74.05
2023-01-29T03:19:22.111Z,74.38
2023-01-29T03:22:16.618Z,74.63
2023-01-29T03:25:09.518Z,74.74
2023-01-29T03:28:22.499Z,75.23
2023-01-29T03:31:28.383Z,75.59
2023-01-29T03:34:24.543Z,76.10
2023-01-29T03:37:21.743Z,76.49
2023-01-29T03:40:15.265Z,76.86
2023-01-29T03:43:13.359Z,77.15
2023-01-29T03:46:10.150Z,77.45
2023-01-29T03:48:45.943Z,77.74
2023-01-29T03:51:36.132Z,77.78
2023-01-29T03:54:21.395Z,77.68
2023-01-29T03:57:18.511Z,77.89
2023-01-29T03:59:55.867Z,78.01
2023-01-29T04:02:52.775Z,78.39
2023-01-29T04:05:49.157Z,78.58
2023-01-29T04:08:47.699Z,78.46
2023-01-29T04:11:22.112Z,78.50
2023-01-29T04:14:13.545Z,78.43
2023-01-29T04:17:01.206Z,78.49
2023-01-29T04:19:56.697Z,78.40
2023-01-29T04:22:51.167Z,78.20
2023-01-29T04:25:30.557Z,78.12
2023-01-29T04:28:27.441Z,77.20
2023-01-29T04:31:19.313Z,76.85
2023-01-29T04:34:23.318Z,76.82
2023-01-29T04:37:22.840Z,76.86
2023-01-29T04:40:21.178Z,76.91
2023-01-29T04:43:20.574Z,76.99
2023-01-29T04:46:18.547Z,77.30
2023-01-29T04:49:24.810Z,76.84
2023-01-29T04:52:23.893Z,76.69
2023-01-29T04:55:22.742Z,76.21
2023-01-29T04:58:17.613Z,76.11
2023-01-29T05:01:12.343Z,76.45
2023-01-29T05:04:07.427Z,76.57
2023-01-29T05:06:58.298Z,76.79
2023-01-29T05:09:50.809Z,77.22
2023-01-29T05:12:34.459Z,77.68
2023-01-29T05:15:32.872Z,77.76
2023-01-29T05:18:24.129Z,78.24
2023-01-29T05:21:15.315Z,78.59
2023-01-29T05:24:18.789Z,78.68
2023-01-29T05:27:34.218Z,78.97
2023-01-29T05:30:25.181Z,78.85
2023-01-29T05:33:18.079Z,78.95
2023-01-29T05:36:09.963Z,79.31
2023-01-29T05:38:50.682Z,79.25
2023-01-29T05:41:41.529Z,79.38
2023-01-29T05:44:32.230Z,79.28
2023-01-29T05:47:23.235Z,78.79
2023-01-29T05:50:16.437Z,78.72
2023-01-29T05:53:01.325Z,78.92
2023-01-29T05:55:46.971Z,78.68
2023-01-29T05:58:38.515Z,78.12
2023-01-29T06:01:16.814Z,78.23
2023-01-29T06:04:06.494Z,78.34
2023-01-29T06:06:49.869Z,78.35
2023-01-29T06:09:40.834Z,78.36
2023-01-29T06:12:31.780Z,77.83
2023-01-29T06:15:15.377Z,77.79
2023-01-29T06:18:06.343Z,78.14
2023-01-29T06:21:01.074Z,78.31
2023-01-29T06:23:35.142Z,78.35
2023-01-29T06:26:25.886Z,78.57
2023-01-29T06:29:16.898Z,78.47
2023-01-29T06:32:08.092Z,78.95
2023-01-29T06:34:53.215Z,79.18
2023-01-29T06:37:44.089Z,79.28
2023-01-29T06:40:34.750Z,79.30
2023-01-29T06:43:26.193Z,79.18
2023-01-29T06:46:16.915Z,79.26
2023-01-29T06:49:07.641Z,79.35
2023-01-29T06:51:58.574Z,79.30
2023-01-29T06:54:49.268Z,79.38
2023-01-29T06:57:40.076Z,79.34
2023-01-29T07:00:31.604Z,79.23
2023-01-29T07:03:23.541Z,79.17
2023-01-29T07:06:14.324Z,79.30
2023-01-29T07:09:05.623Z,79.29
2023-01-29T07:11:56.371Z,79.69
2023-01-29T07:14:47.366Z,79.65
2023-01-29T07:17:38.220Z,79.74
2023-01-29T07:20:30.740Z,79.93
2023-01-29T07:23:20.591Z,80.22
2023-01-29T07:26:13.031Z,80.05
2023-01-29T07:29:05.603Z,79.97
2023-01-29T07:31:56.356Z,80.04
2023-01-29T07:34:47.082Z,80.00
2023-01-29T07:37:37.769Z,80.11
2023-01-29T07:40:28.543Z,80.15
2023-01-29T07:43:19.195Z,80.12
2023-01-29T07:46:10.124Z,80.12
2023-01-29T07:49:01.893Z,80.63
2023-01-29T07:51:52.610Z,80.46
2023-01-29T07:54:43.337Z,80.76
2023-01-29T07:57:33.989Z,80.84
2023-01-29T08:00:25.814Z,80.48
2023-01-29T08:03:18.636Z,80.21
2023-01-29T08:06:09.903Z,80.15
2023-01-29T08:09:00.634Z,80.43
2023-01-29T08:11:51.310Z,80.26
2023-01-29T08:14:42.121Z,80.16
2023-01-29T08:17:32.951Z,80.00
2023-01-29T08:20:24.463Z,79.87
2023-01-29T08:23:15.435Z,79.48
2023-01-29T08:26:06.970Z,79.54
2023-01-29T08:28:57.721Z,79.37
2023-01-29T08:31:49.156Z,78.94
2023-01-29T08:34:39.900Z,78.25
2023-01-29T08:37:30.679Z,78.50
2023-01-29T08:40:21.782Z,78.11
2023-01-29T08:43:14.548Z,77.70
2023-01-29T08:46:06.099Z,77.64
2023-01-29T08:49:00.648Z,77.36
2023-01-29T08:51:42.817Z,77.44
2023-01-29T08:54:33.521Z,77.35
2023-01-29T08:57:24.287Z,77.08
2023-01-29T09:00:17.779Z,77.15
2023-01-29T09:03:08.766Z,76.80
2023-01-29T09:05:59.717Z,76.79
2023-01-29T09:08:35.415Z,76.45
2023-01-29T09:11:26.309Z,76.50
2023-01-29T09:14:17.076Z,76.68
2023-01-29T09:17:07.805Z,76.42
2023-01-29T09:19:58.850Z,75.86
2023-01-29T09:22:52.040Z,74.80
2023-01-29T09:25:36.686Z,74.42
2023-01-29T09:28:27.492Z,74.30
2023-01-29T09:31:09.848Z,73.47
2023-01-29T09:34:00.586Z,72.72
2023-01-29T09:36:44.589Z,73.13
2023-01-29T09:39:27.928Z,73.17
2023-01-29T09:42:05.102Z,72.92
2023-01-29T09:45:04.663Z,71.75
2023-01-29T09:47:58.604Z,71.61
2023-01-29T09:50:52.865Z,71.82
2023-01-29T09:53:41.888Z,71.05
2023-01-29T09:56:19.306Z,70.90
2023-01-29T09:59:14.276Z,70.60
2023-01-29T10:02:12.240Z,70.72
2023-01-29T10:05:18.933Z,70.74
2023-01-29T10:08:30.130Z,70.57
2023-01-29T10:11:33.937Z,70.69
2023-01-29T10:14:27.552Z,69.42
2023-01-29T10:17:37.092Z,69.85
2023-01-29T10:20:58.555Z,70.50
2023-01-29T10:23:48.129Z,69.60
2023-01-29T10:26:40.792Z,69.54
2023-01-29T10:29:23.078Z,69.31
2023-01-29T10:32:06.025Z,68.80
2023-01-29T10:35:01.554Z,68.57
2023-01-29T10:37:55.292Z,69.24
2023-01-29T10:40:42.396Z,69.23
2023-01-29T10:43:40.210Z,69.16
2023-01-29T10:46:44.538Z,67.79
2023-01-29T10:49:50.668Z,67.56
2023-01-29T10:52:58.174Z,67.63
2023-01-29T10:56:02.401Z,68.73
2023-01-29T10:58:56.056Z,67.82
2023-01-29T11:01:39.840Z,67.39
2023-01-29T11:04:19.753Z,66.97
2023-01-29T11:07:02.810Z,66.82
2023-01-29T11:10:02.135Z,66.23
2023-01-29T11:12:54.426Z,66.28
2023-01-29T11:15:36.351Z,66.45
2023-01-29T11:18:14.111Z,66.57
2023-01-29T11:21:07.468Z,65.01
2023-01-29T11:24:17.506Z,65.68
2023-01-29T11:27:04.428Z,66.07
2023-01-29T11:29:56.761Z,66.27
2023-01-29T11:32:34.550Z,66.06
2023-01-29T11:35:26.372Z,65.87
2023-01-29T11:38:22.917Z,66.22
2023-01-29T11:41:06.717Z,66.46
2023-01-29T11:43:37.317Z,66.42
2023-01-29T11:46:21.712Z,66.72
2023-01-29T11:49:14.436Z,67.27
2023-01-29T11:52:03.295Z,66.55
2023-01-29T11:54:58.897Z,67.24
2023-01-29T11:57:42.759Z,65.99
2023-01-29T12:00:36.169Z,65.71
2023-01-29T12:03:36.007Z,65.79
2023-01-29T12:06:24.274Z,65.75
2023-01-29T12:09:14.470Z,65.79
2023-01-29T12:12:27.891Z,65.70
2023-01-29T12:15:22.908Z,65.20
2023-01-29T12:18:24.100Z,65.75
2023-01-29T12:21:13.101Z,65.72
2023-01-29T12:24:13.704Z,65.04
2023-01-29T12:26:52.893Z,65.41
2023-01-29T12:29:43.934Z,65.37
2023-01-29T12:32:32.222Z,65.55
2023-01-29T12:35:21.258Z,65.29
2023-01-29T12:38:01.935Z,64.75
2023-01-29T12:40:40.584Z,63.86
2023-01-29T12:43:16.822Z,63.75
2023-01-29T12:45:55.172Z,63.81
2023-01-29T12:48:43.690Z,63.85
2023-01-29T12:51:21.628Z,64.38
2023-01-29T12:53:56.607Z,62.84
2023-01-29T12:56:51.064Z,61.77
2023-01-29T12:59:34.281Z,61.61
2023-01-29T13:02:21.962Z,61.14
2023-01-29T13:04:59.094Z,60.07
2023-01-29T13:07:54.711Z,59.76
2023-01-29T13:10:43.911Z,60.61
2023-01-29T13:13:28.835Z,59.52
2023-01-29T13:16:15.756Z,58.68
2023-01-29T13:18:50.846Z,57.74
2023-01-29T13:21:38.259Z,58.38
2023-01-29T13:24:18.779Z,58.36
2023-01-29T13:26:52.845Z,57.98
2023-01-29T13:29:46.116Z,57.09
2023-01-29T13:32:37.673Z,56.99
2023-01-29T13:35:24.439Z,57.02
2023-01-29T13:37:56.451Z,57.56
2023-01-29T13:40:31.220Z,57.34
2023-01-29T13:43:22.739Z,57.70
2023-01-29T13:46:11.826Z,56.52
2023-01-29T13:48:58.322Z,57.19
2023-01-29T13:51:39.028Z,56.75
2023-01-29T13:54:29.972Z,57.35
2023-01-29T13:57:50.353Z,57.20
2023-01-29T14:00:58.993Z,57.87
2023-01-29T14:04:03.662Z,58.14
2023-01-29T14:06:57.389Z,59.14
2023-01-29T14:10:02.526Z,59.04
2023-01-29T14:12:50.244Z,59.97
2023-01-29T14:15:35.936Z,60.02
2023-01-29T14:18:19.494Z,60.12
2023-01-29T14:21:01.414Z,60.94
2023-01-29T14:23:46.827Z,61.37
2023-01-29T14:26:47.505Z,61.67
2023-01-29T14:29:35.438Z,60.53
2023-01-29T14:32:20.480Z,60.00
2023-01-29T14:34:55.709Z,61.19
2023-01-29T14:37:40.422Z,60.50
2023-01-29T14:40:21.862Z,59.79
2023-01-29T14:42:57.128Z,59.44
2023-01-29T14:45:30.137Z,58.36
2023-01-29T14:48:39.206Z,58.86
2023-01-29T14:51:37.640Z,60.00
2023-01-29T14:54:30.297Z,59.67
2023-01-29T14:57:21.510Z,60.58
2023-01-29T15:00:20.303Z,60.75
2023-01-29T15:03:01.941Z,61.70
2023-01-29T15:05:40.121Z,62.27
2023-01-29T15:08:35.276Z,62.62
2023-01-29T15:11:32.756Z,62.76
2023-01-29T15:14:24.977Z,63.14
2023-01-29T15:17:26.633Z,63.96
2023-01-29T15:20:24.956Z,64.43
2023-01-29T15:22:58.487Z,65.11
2023-01-29T15:25:53.579Z,65.20
2023-01-29T15:28:32.267Z,65.49
2023-01-29T15:31:05.776Z,65.56
2023-01-29T15:33:43.274Z,65.94
2023-01-29T15:36:34.854Z,66.43
2023-01-29T15:39:21.610Z,66.74
2023-01-29T15:42:21.677Z,66.79
2023-01-29T15:45:25.787Z,67.36
2023-01-29T15:48:17.430Z,67.82
2023-01-29T15:51:14.705Z,68.16
2023-01-29T15:53:52.291Z,68.33
2023-01-29T15:56:45.903Z,68.78
2023-01-29T15:59:22.979Z,69.02
2023-01-29T16:02:25.624Z,69.37
2023-01-29T16:05:17.404Z,69.96
2023-01-29T16:08:12.926Z,70.58
2023-01-29T16:10:51.688Z,71.02
2023-01-29T16:13:35.262Z,71.38
2023-01-29T16:16:17.865Z,71.49
2023-01-29T16:19:00.821Z,71.83
2023-01-29T16:21:47.145Z,72.38
2023-01-29T16:24:39.377Z,72.57
2023-01-29T16:27:25.908Z,72.91
2023-01-29T16:30:11.603Z,73.33
2023-01-29T16:32:50.365Z,73.73
2023-01-29T16:35:42.048Z,74.22
2023-01-29T16:38:31.218Z,74.71
2023-01-29T16:41:31.987Z,75.02
2023-01-29T16:44:36.886Z,75.62
2023-01-29T16:47:36.366Z,75.92
2023-01-29T16:50:40.599Z,76.23
2023-01-29T16:53:36.735Z,77.00
2023-01-29T16:56:09.472Z,77.17
2023-01-29T16:58:43.152Z,77.37
2023-01-29T17:01:36.842Z,78.10
2023-01-29T17:04:29.001Z,77.76
2023-01-29T17:07:22.297Z,77.96
2023-01-29T17:10:21.035Z,78.39
2023-01-29T17:13:20.511Z,78.85
2023-01-29T17:16:04.615Z,79.60
2023-01-29T17:18:48.459Z,80.33
2023-01-29T17:21:39.795Z,80.66
2023-01-29T17:24:20.423Z,80.87
2023-01-29T17:27:20.120Z,81.56
2023-01-29T17:30:17.456Z,81.73
2023-01-29T17:33:02.828Z,82.01
2023-01-29T17:35:53.964Z,82.42
2023-01-29T17:38:44.841Z,82.68
2023-01-29T17:41:22.461Z,82.86
2023-01-29T17:44:04.290Z,83.21
2023-01-29T17:46:55.513Z,83.80
2023-01-29T17:49:46.831Z,84.35
2023-01-29T17:52:37.655Z,84.84
2023-01-29T17:55:28.560Z,85.30
2023-01-29T17:58:19.345Z,85.83
2023-01-29T18:01:01.816Z,86.41
2023-01-29T18:03:52.736Z,86.75
2023-01-29T18:06:45.763Z,86.34
2023-01-29T18:09:29.226Z,86.20
2023-01-29T18:12:20.124Z,86.88
2023-01-29T18:15:12.991Z,87.00
2023-01-29T18:17:56.720Z,87.52
2023-01-29T18:20:47.546Z,87.59
2023-01-29T18:23:23.925Z,87.76
2023-01-29T18:26:04.514Z,88.10
2023-01-29T18:28:55.368Z,87.76
2023-01-29T18:31:40.197Z,87.97
2023-01-29T18:34:31.075Z,87.86
2023-01-29T18:37:21.843Z,88.47
2023-01-29T18:39:52.916Z,88.67
2023-01-29T18:42:28.308Z,88.67
2023-01-29T18:45:04.908Z,89.42
2023-01-29T18:47:54.565Z,89.99
2023-01-29T18:50:27.534Z,89.82
2023-01-29T18:53:07.706Z,89.49
2023-01-29T18:55:59.515Z,89.23
2023-01-29T18:58:52.260Z,89.10
2023-01-29T19:01:28.873Z,89.07
2023-01-29T19:04:02.035Z,88.78
2023-01-29T19:06:43.289Z,88.99
2023-01-29T19:09:34.263Z,89.29
2023-01-29T19:12:16.171Z,89.20
2023-01-29T19:14:46.838Z,89.20
2023-01-29T19:17:18.051Z,89.30
2023-01-29T19:20:02.241Z,88.85
2023-01-29T19:22:36.387Z,88.56
2023-01-29T19:25:19.777Z,88.23
2023-01-29T19:27:53.742Z,88.52
2023-01-29T19:30:33.703Z,88.06
2023-01-29T19:33:07.758Z,87.97
2023-01-29T19:35:51.220Z,88.04
2023-01-29T19:38:42.563Z,88.17
2023-01-29T19:41:16.418Z,88.02
2023-01-29T19:43:56.354Z,87.70
2023-01-29T19:46:39.008Z,87.76
2023-01-29T19:49:19.796Z,87.65
2023-01-29T19:51:50.405Z,87.53
2023-01-29T19:54:43.113Z,87.31
2023-01-29T19:57:17.212Z,87.10
2023-01-29T19:59:48.129Z,87.36
2023-01-29T20:02:18.796Z,87.41
2023-01-29T20:05:12.760Z,87.46
2023-01-29T20:07:53.658Z,87.69
2023-01-29T20:10:24.472Z,87.85
2023-01-29T20:13:17.179Z,87.69
2023-01-29T20:15:52.011Z,87.49
2023-01-29T20:18:22.965Z,87.71
2023-01-29T20:20:57.010Z,87.79
2023-01-29T20:23:38.014Z,88.00
2023-01-29T20:26:16.591Z,87.87
2023-01-29T20:28:48.353Z,87.85
2023-01-29T20:31:19.038Z,87.97
2023-01-29T20:33:52.785Z,88.08
2023-01-29T20:36:23.212Z,88.13
2023-01-29T20:38:53.843Z,88.23
2023-01-29T20:41:24.618Z,88.23
2023-01-29T20:43:55.186Z,88.10
2023-01-29T20:46:38.091Z,88.19
2023-01-29T20:49:08.907Z,88.07
2023-01-29T20:51:42.357Z,87.91
2023-01-29T20:54:22.319Z,88.14
2023-01-29T20:56:56.500Z,87.95
2023-01-29T20:59:30.565Z,88.09
2023-01-29T21:02:04.015Z,88.49
2023-01-29T21:04:54.960Z,88.46
2023-01-29T21:07:28.902Z,88.61
2023-01-29T21:10:00.750Z,88.80
2023-01-29T21:12:34.048Z,88.88
2023-01-29T21:15:16.511Z,88.80
2023-01-29T21:17:48.104Z,88.77
2023-01-29T21:20:21.362Z,88.39
2023-01-29T21:22:54.839Z,88.22
2023-01-29T21:25:46.003Z,88.14
2023-01-29T21:28:26.744Z,87.75
2023-01-29T21:31:12.330Z,87.75
2023-01-29T21:33:43.008Z,87.71
2023-01-29T21:36:16.020Z,87.70
2023-01-29T21:38:46.639Z,87.79
2023-01-29T21:41:45.689Z,87.95
2023-01-29T21:44:15.663Z,87.93
2023-01-29T21:46:46.265Z,87.71
2023-01-29T21:49:17.040Z,87.47
2023-01-29T21:51:51.168Z,87.52
2023-01-29T21:54:31.375Z,87.49
2023-01-29T21:57:15.996Z,87.30
2023-01-29T21:59:48.407Z,87.27
2023-01-29T22:02:26.618Z,87.45
2023-01-29T22:05:16.440Z,87.47
2023-01-29T22:07:52.678Z,87.42
2023-01-29T22:10:24.123Z,87.58
2023-01-29T22:13:07.870Z,87.64
2023-01-29T22:15:38.533Z,87.72
2023-01-29T22:18:18.277Z,87.76
2023-01-29T22:20:57.220Z,87.73
2023-01-29T22:23:31.199Z,87.62
2023-01-29T22:26:06.771Z,87.69
2023-01-29T22:28:38.148Z,87.57
2023-01-29T22:31:11.103Z,87.75
2023-01-29T22:33:45.555Z,87.55
2023-01-29T22:36:16.492Z,87.47
2023-01-29T22:38:50.455Z,87.57
2023-01-29T22:41:21.108Z,87.35
2023-01-29T22:43:51.887Z,87.20
2023-01-29T22:46:25.504Z,87.33
2023-01-29T22:48:56.602Z,87.32
2023-01-29T22:51:30.138Z,87.15
2023-01-29T22:54:01.419Z,86.99
2023-01-29T22:56:32.048Z,86.86
2023-01-29T22:59:05.021Z,86.89
2023-01-29T23:01:55.782Z,86.77
2023-01-29T23:04:29.481Z,86.67
2023-01-29T23:07:11.230Z,86.30
2023-01-29T23:10:01.929Z,86.21
2023-01-29T23:12:35.753Z,86.29
2023-01-29T23:15:26.414Z,86.21
2023-01-29T23:17:57.079Z,86.10
2023-01-29T23:20:27.773Z,85.98
2023-01-29T23:23:01.615Z,86.04
2023-01-29T23:25:46.365Z,86.13
2023-01-29T23:28:29.962Z,86.13
2023-01-29T23:31:00.709Z,86.01
2023-01-29T23:33:44.555Z,86.10
2023-01-29T23:36:24.193Z,86.37
2023-01-29T23:39:15.492Z,86.36
2023-01-29T23:41:49.322Z,86.59
2023-01-29T23:44:22.109Z,86.61
2023-01-29T23:46:52.708Z,86.70
2023-01-29T23:49:33.493Z,86.94
2023-01-29T23:52:24.256Z,86.97
2023-01-29T23:55:14.975Z,87.09
2023-01-29T23:58:05.819Z,87.10
